Spring Lake, Louisiana
Current Conditions -  °F | °C
As of 4:56 AM on Friday 31 Oct 2014 (Local Time) from KSHV Reporting Station
Clear Clear  
Wind Chill: 52°   Ceiling: Unl
Heat Index: 52°   Visibility: 10mi
Dew Point: 47°   Wind: 8mph
Humidity: 83%   Direction: 300°WNW
Pressure: 30.09"   Gusts: NA
Location:  32.3873°N, 93.7356°W
Report Text: KSHV 310956Z 30007KT 10SM CLR 11/08 A3009 RMK AO2 SLP186 T01110083
Loading
Personal Weather Stations






























Interactive Weather Map
Tropical Storm Tracking
New forecast layout! Learn more

10-Day Weather Forecast

Advertisements
Track Severe Weather on mobile